Time;durP1;ratioP1;P1;durP2;ratioP2;P2;SDS_P1;SDS_P2;PMS_P1;PMS_P2;Temp;Humidity;BMP_temperature;BMP_pressure;BME280_temperature;BME280_humidity;BME280_pressure;Samples;Min_cycle;Max_cycle;Signal;HPM_P1;HPM_P2
2023/02/07 00:00:55;;;;;;;36.22;13.30;;;2.80;99.90;;;;;;4937405;28;95543;-76
2023/02/07 00:03:22;;;;;;;30.27;12.57;;;2.80;99.90;;;;;;4938348;28;95363;-76
2023/02/07 00:05:49;;;;;;;31.73;14.20;;;2.70;99.90;;;;;;4937399;28;92566;-76
2023/02/07 00:08:16;;;;;;;24.52;12.35;;;2.70;99.90;;;;;;4905660;28;92512;-76
2023/02/07 00:10:43;;;;;;;24.75;11.73;;;2.70;99.90;;;;;;4921066;28;95878;-76
2023/02/07 00:13:10;;;;;;;44.88;15.13;;;2.70;99.90;;;;;;4920793;28;103824;-76
2023/02/07 00:15:37;;;;;;;34.05;14.15;;;2.70;99.90;;;;;;4921082;28;92566;-77
2023/02/07 00:18:04;;;;;;;33.20;12.43;;;2.70;99.90;;;;;;4939132;28;91716;-76
2023/02/07 00:20:31;;;;;;;34.67;13.88;;;2.70;99.90;;;;;;4936842;28;95771;-77
2023/02/07 00:22:58;;;;;;;34.60;14.45;;;2.70;99.90;;;;;;4936815;28;95812;-76
2023/02/07 00:25:26;;;;;;;28.30;13.73;;;2.80;99.90;;;;;;4920115;28;94835;-76
2023/02/07 00:27:53;;;;;;;34.67;13.48;;;2.70;99.90;;;;;;4938607;28;92384;-76
2023/02/07 00:30:20;;;;;;;22.08;10.00;;;2.70;99.90;;;;;;4938345;28;92782;-77
2023/02/07 00:32:47;;;;;;;29.50;12.20;;;2.70;99.90;;;;;;4937012;28;93175;-76
2023/02/07 00:35:16;;;;;;;36.92;15.25;;;2.70;99.90;;;;;;4936808;28;92473;-76
2023/02/07 00:37:43;;;;;;;33.88;13.20;;;2.70;99.90;;;;;;4936391;28;92503;-76
2023/02/07 00:40:10;;;;;;;29.48;13.10;;;2.70;99.90;;;;;;4920876;28;92619;-76
2023/02/07 00:42:37;;;;;;;35.60;15.80;;;2.60;99.90;;;;;;4938258;28;97488;-76
2023/02/07 00:45:04;;;;;;;30.60;12.88;;;2.60;99.90;;;;;;4920654;28;92779;-76
2023/02/07 00:47:31;;;;;;;26.67;13.43;;;2.50;99.90;;;;;;4937886;28;92486;-76
2023/02/07 00:50:00;;;;;;;24.52;11.52;;;2.60;99.90;;;;;;4936572;28;96205;-76
2023/02/07 00:52:28;;;;;;;32.58;14.98;;;2.50;99.90;;;;;;4937431;28;95431;-76
2023/02/07 00:54:55;;;;;;;32.65;14.07;;;2.50;99.90;;;;;;4936448;28;92826;-76
2023/02/07 00:57:22;;;;;;;31.67;14.95;;;2.50;99.90;;;;;;4938034;28;92516;-76
2023/02/07 00:59:49;;;;;;;29.83;14.77;;;2.40;99.90;;;;;;4936576;28;93178;-76
2023/02/07 01:02:16;;;;;;;25.98;13.35;;;2.40;99.90;;;;;;4920115;28;95462;-76
2023/02/07 01:04:43;;;;;;;30.73;14.23;;;2.40;99.90;;;;;;4937533;28;93156;-76
2023/02/07 01:07:11;;;;;;;32.60;15.88;;;2.40;99.90;;;;;;4920120;28;92290;-76
2023/02/07 01:09:38;;;;;;;30.23;13.27;;;2.30;99.90;;;;;;4937659;28;93326;-76
2023/02/07 01:12:05;;;;;;;26.88;13.05;;;2.30;99.90;;;;;;4937572;28;93230;-76
2023/02/07 01:14:32;;;;;;;30.38;14.35;;;2.30;99.90;;;;;;4934929;28;94857;-76
2023/02/07 01:17:00;;;;;;;24.02;12.93;;;2.30;99.90;;;;;;4937660;28;92508;-76
2023/02/07 01:19:27;;;;;;;26.40;13.15;;;2.20;99.90;;;;;;4935845;28;94264;-76
2023/02/07 01:21:58;;;;;;;26.25;13.07;;;2.20;99.90;;;;;;4936100;28;95825;-76
2023/02/07 01:24:25;;;;;;;27.08;12.55;;;2.20;99.90;;;;;;4920085;28;92515;-76
2023/02/07 01:26:52;;;;;;;27.38;14.45;;;2.10;99.90;;;;;;4936047;28;93112;-76
2023/02/07 01:29:19;;;;;;;32.78;14.93;;;2.10;99.90;;;;;;4919844;28;95885;-76
2023/02/07 01:31:46;;;;;;;23.85;12.85;;;2.10;99.90;;;;;;4904037;28;95434;-76
2023/02/07 01:34:13;;;;;;;26.83;13.25;;;2.00;99.90;;;;;;4935753;28;92540;-76
2023/02/07 01:36:40;;;;;;;29.90;13.48;;;2.00;99.90;;;;;;4919741;28;92823;-77
2023/02/07 01:39:08;;;;;;;28.65;13.48;;;2.00;99.90;;;;;;4934621;28;95445;-76
2023/02/07 01:41:35;;;;;;;34.80;14.85;;;1.90;99.90;;;;;;4935607;28;98105;-76
2023/02/07 01:44:26;;;;;;;30.90;14.50;;;1.90;99.90;;;;;;4937313;28;92621;-76
2023/02/07 01:46:55;;;;;;;23.60;13.75;;;1.90;99.90;;;;;;4935544;28;93212;-76
2023/02/07 01:49:28;;;;;;;27.55;14.18;;;1.90;99.90;;;;;;4935609;28;95560;-76
2023/02/07 01:52:04;;;;;;;28.25;14.57;;;1.80;99.90;;;;;;4937236;28;92958;-76
2023/02/07 01:54:34;;;;;;;27.63;14.07;;;1.80;99.90;;;;;;4935568;28;92546;-76
2023/02/07 01:57:06;;;;;;;29.05;15.23;;;1.80;99.90;;;;;;4919884;28;91924;-76
2023/02/07 01:59:37;;;;;;;29.20;14.63;;;1.80;99.90;;;;;;4935355;28;96446;-76
2023/02/07 02:02:05;;;;;;;28.92;14.63;;;1.70;99.90;;;;;;4934714;28;95659;-76
2023/02/07 02:04:32;;;;;;;23.40;13.85;;;1.70;99.90;;;;;;4934414;28;94917;-76
2023/02/07 02:06:59;;;;;;;27.92;14.50;;;1.60;99.90;;;;;;4935647;28;93338;-76
2023/02/07 02:09:28;;;;;;;31.65;14.25;;;1.60;99.90;;;;;;4936676;28;93549;-76
2023/02/07 02:11:55;;;;;;;32.63;14.25;;;1.60;99.90;;;;;;4919451;28;95839;-76
2023/02/07 02:14:25;;;;;;;27.85;13.98;;;1.60;99.90;;;;;;4936685;28;92422;-76
2023/02/07 02:17:06;;;;;;;27.42;14.48;;;1.50;99.90;;;;;;4935246;28;92651;-76
2023/02/07 02:19:57;;;;;;;28.55;14.48;;;1.50;99.90;;;;;;4936795;28;93938;-76
2023/02/07 02:22:46;;;;;;;32.28;15.52;;;1.50;99.90;;;;;;4935434;28;95847;-76
2023/02/07 02:25:34;;;;;;;29.83;15.05;;;1.50;99.90;;;;;;4919257;28;92522;-76
2023/02/07 02:28:20;;;;;;;31.92;15.50;;;1.50;99.90;;;;;;4918757;28;92562;-76
2023/02/07 02:31:04;;;;;;;31.23;14.98;;;1.40;99.90;;;;;;4917550;28;98088;-77
2023/02/07 02:33:59;;;;;;;30.27;16.35;;;1.40;99.90;;;;;;4951389;28;95193;-75
2023/02/07 02:36:50;;;;;;;35.20;16.10;;;1.40;99.90;;;;;;4936567;28;92347;-77
2023/02/07 02:39:33;;;;;;;32.30;16.85;;;1.30;99.90;;;;;;4919169;28;92658;-77
2023/02/07 02:42:14;;;;;;;31.25;15.82;;;1.30;99.90;;;;;;4918633;28;95961;-77
2023/02/07 02:45:01;;;;;;;33.35;16.17;;;1.20;99.90;;;;;;4934732;28;95560;-77
2023/02/07 02:47:29;;;;;;;;;;;1.20;99.90;;;;;;4935661;28;92376;-77
2023/02/07 02:49:57;;;;;;;27.20;14.05;;;1.10;99.90;;;;;;4936991;28;91768;-77
2023/02/07 02:52:27;;;;;;;31.88;16.63;;;1.10;99.90;;;;;;4918688;28;95723;-76
2023/02/07 02:55:16;;;;;;;30.75;16.88;;;1.10;99.90;;;;;;4921303;28;95362;-77
2023/02/07 02:58:17;;;;;;;28.23;16.15;;;1.10;99.90;;;;;;4935017;28;94820;-77
2023/02/07 03:01:06;;;;;;;31.75;15.05;;;1.10;99.90;;;;;;4935979;28;92642;-76
2023/02/07 03:04:01;;;;;;;33.05;14.93;;;1.10;99.90;;;;;;4934738;28;95987;-77
2023/02/07 03:06:28;;;;;;;31.38;15.95;;;1.10;99.90;;;;;;4934758;28;95493;-75
2023/02/07 03:09:04;;;;;;;29.73;15.55;;;1.00;99.90;;;;;;4934903;28;92874;-77
2023/02/07 03:11:41;;;;;;;27.70;15.70;;;1.00;99.90;;;;;;4918551;28;92530;-77
2023/02/07 03:14:21;;;;;;;29.20;15.00;;;1.00;99.90;;;;;;4935911;28;93066;-77
2023/02/07 03:17:21;;;;;;;26.88;14.55;;;1.00;99.90;;;;;;4936198;28;93207;-77
2023/02/07 03:20:14;;;;;;;27.55;14.52;;;1.00;99.90;;;;;;4934400;28;92474;-76
2023/02/07 03:22:43;;;;;;;30.52;14.70;;;0.90;99.90;;;;;;4929043;28;92575;-76
2023/02/07 03:25:12;;;;;;;26.85;15.90;;;0.90;99.90;;;;;;4934119;28;95992;-76
2023/02/07 03:27:40;;;;;;;29.95;15.18;;;0.80;99.90;;;;;;4918311;28;98394;-76
2023/02/07 03:30:15;;;;;;;31.80;15.68;;;0.80;99.90;;;;;;4936045;28;92531;-76
2023/02/07 03:32:49;;;;;;;28.83;15.82;;;0.80;99.90;;;;;;4939572;28;92325;-76
2023/02/07 03:35:54;;;;;;;30.13;15.63;;;0.70;99.90;;;;;;4938875;28;93198;-76
2023/02/07 03:38:21;;;;;;;30.70;15.02;;;0.70;99.90;;;;;;4937755;28;93182;-77
2023/02/07 03:40:55;;;;;;;30.13;15.05;;;0.60;99.90;;;;;;4937916;28;92450;-76
2023/02/07 03:43:27;;;;;;;27.05;15.73;;;0.70;99.90;;;;;;4938015;28;91753;-76
2023/02/07 03:45:55;;;;;;;30.15;15.80;;;0.60;99.90;;;;;;4937855;28;93150;-76
2023/02/07 03:48:22;;;;;;;31.33;16.02;;;0.60;99.90;;;;;;4921483;28;95502;-76
2023/02/07 03:50:51;;;;;;;30.52;16.17;;;0.60;99.90;;;;;;4936764;28;94982;-76
2023/02/07 03:53:19;;;;;;;34.50;16.35;;;0.50;99.90;;;;;;4953953;28;92435;-76
2023/02/07 03:55:46;;;;;;;24.85;14.73;;;0.50;99.90;;;;;;4921127;28;95722;-76
2023/02/07 03:58:13;;;;;;;29.25;15.50;;;0.50;99.90;;;;;;4938628;28;93005;-76
2023/02/07 04:00:40;;;;;;;30.00;15.95;;;0.50;99.90;;;;;;4936977;28;92858;-76
2023/02/07 04:03:07;;;;;;;28.73;15.50;;;0.50;99.90;;;;;;4921266;28;92743;-76
2023/02/07 04:05:34;;;;;;;36.70;16.85;;;0.50;99.90;;;;;;4937242;28;93617;-76
2023/02/07 04:08:01;;;;;;;27.40;15.70;;;0.50;99.90;;;;;;4921153;28;101693;-76
2023/02/07 04:10:28;;;;;;;31.13;16.30;;;0.50;99.90;;;;;;4938693;28;93076;-76
2023/02/07 04:12:55;;;;;;;26.45;14.77;;;0.40;99.90;;;;;;4938609;28;92431;-76
2023/02/07 04:15:22;;;;;;;27.75;16.08;;;0.40;99.90;;;;;;4935817;28;98289;-76
2023/02/07 04:17:49;;;;;;;29.75;15.52;;;0.40;99.90;;;;;;4937310;28;95418;-76
2023/02/07 04:20:16;;;;;;;32.65;15.88;;;0.40;99.90;;;;;;4937103;28;92668;-76
2023/02/07 04:22:43;;;;;;;29.52;15.85;;;0.30;99.90;;;;;;4938713;28;92414;-76
2023/02/07 04:25:10;;;;;;;31.17;15.52;;;0.30;99.90;;;;;;4936894;28;93582;-76
2023/02/07 04:27:37;;;;;;;28.13;15.65;;;0.20;99.90;;;;;;4936921;28;93176;-76
2023/02/07 04:30:05;;;;;;;27.70;16.15;;;0.20;99.90;;;;;;4937016;28;92576;-76
2023/02/07 04:32:32;;;;;;;29.25;15.85;;;0.20;99.90;;;;;;4937434;28;91757;-77
2023/02/07 04:34:59;;;;;;;27.77;16.25;;;0.20;99.90;;;;;;4937748;28;93218;-76
2023/02/07 04:37:26;;;;;;;29.70;15.82;;;0.10;99.90;;;;;;4936921;28;92796;-76
2023/02/07 04:39:53;;;;;;;31.13;16.63;;;0.10;99.90;;;;;;4919663;28;95060;-75
2023/02/07 04:42:20;;;;;;;30.70;17.25;;;0.10;99.90;;;;;;4938038;28;92483;-76
2023/02/07 04:44:47;;;;;;;30.45;16.17;;;0.00;99.90;;;;;;4936854;28;93387;-77
2023/02/07 04:47:14;;;;;;;35.08;17.48;;;0.00;99.90;;;;;;4920163;28;95681;-77
2023/02/07 04:49:41;;;;;;;32.65;17.13;;;0.00;99.90;;;;;;4938311;28;92880;-77
2023/02/07 04:52:08;;;;;;;33.25;16.42;;;0.00;99.90;;;;;;4936318;28;92521;-77
2023/02/07 04:54:35;;;;;;;35.58;16.27;;;0.00;99.90;;;;;;4936342;28;93263;-76
2023/02/07 04:57:02;;;;;;;34.95;16.88;;;0.00;99.90;;;;;;4938023;28;93331;-76
2023/02/07 04:59:29;;;;;;;32.72;15.98;;;0.00;99.90;;;;;;4937977;28;92941;-76
2023/02/07 05:01:56;;;;;;;33.17;17.08;;;0.00;99.90;;;;;;4952502;28;92562;-76
2023/02/07 05:04:23;;;;;;;33.60;17.80;;;-0.10;99.90;;;;;;4934950;28;95625;-76
2023/02/07 05:06:50;;;;;;;30.35;17.13;;;-0.10;99.90;;;;;;4936104;28;95485;-76
2023/02/07 05:09:17;;;;;;;33.53;17.35;;;-0.10;99.90;;;;;;4936235;28;93102;-76
2023/02/07 05:11:44;;;;;;;29.60;16.60;;;-0.10;99.90;;;;;;4936333;28;92433;-76
2023/02/07 05:14:11;;;;;;;35.58;16.67;;;-0.20;99.90;;;;;;4936041;28;93369;-76
2023/02/07 05:16:38;;;;;;;32.97;16.65;;;-0.20;99.90;;;;;;4936037;28;93015;-76
2023/02/07 05:19:05;;;;;;;32.47;16.83;;;-0.20;99.90;;;;;;4935892;28;92966;-77
2023/02/07 05:21:32;;;;;;;32.72;16.35;;;-0.20;99.90;;;;;;4937858;28;91750;-76
2023/02/07 05:23:59;;;;;;;34.30;16.45;;;-0.30;99.90;;;;;;4935874;28;92487;-75
2023/02/07 05:26:26;;;;;;;31.60;17.20;;;-0.30;99.90;;;;;;4935445;28;95919;-75
2023/02/07 05:28:53;;;;;;;32.08;17.20;;;-0.30;99.90;;;;;;4918777;28;95765;-75
2023/02/07 05:33:02;;;;;;;33.13;17.40;;;-0.30;99.90;;;;;;4935585;28;92550;-77
2023/02/07 05:34:07;;;;;;;34.20;16.85;;;-0.30;99.90;;;;;;4935854;28;93712;-75
2023/02/07 05:36:35;;;;;;;32.47;16.17;;;-0.40;99.90;;;;;;4935447;28;95874;-75
2023/02/07 05:39:02;;;;;;;37.22;17.48;;;-0.40;99.90;;;;;;4937154;28;92425;-77
2023/02/07 05:41:33;;;;;;;39.78;18.35;;;-0.40;99.90;;;;;;4937303;28;92399;-75
2023/02/07 05:44:00;;;;;;;37.03;18.30;;;-0.40;99.90;;;;;;4936827;28;92893;-76
2023/02/07 05:46:27;;;;;;;37.58;18.13;;;-0.40;99.90;;;;;;4935655;28;93130;-75
2023/02/07 05:48:54;;;;;;;36.88;18.83;;;-0.40;99.90;;;;;;4935841;28;93000;-77
2023/02/07 05:51:21;;;;;;;38.35;18.50;;;-0.40;99.90;;;;;;4935725;28;93108;-76
2023/02/07 05:53:48;;;;;;;42.65;19.08;;;-0.50;99.90;;;;;;4917515;28;98385;-76
2023/02/07 05:56:15;;;;;;;35.83;17.58;;;-0.50;99.90;;;;;;4903114;28;97878;-76
2023/02/07 05:58:42;;;;;;;37.42;18.23;;;-0.50;99.90;;;;;;4935450;28;98735;-77
2023/02/07 06:01:09;;;;;;;39.22;18.25;;;-0.50;99.90;;;;;;4934739;28;92631;-76
2023/02/07 06:03:36;;;;;;;40.22;19.92;;;-0.50;99.90;;;;;;4935503;28;93752;-76
2023/02/07 06:06:03;;;;;;;46.28;20.35;;;-0.60;99.90;;;;;;4935613;28;92934;-77
2023/02/07 06:08:30;;;;;;;40.03;19.30;;;-0.60;99.90;;;;;;4936619;28;92950;-77
2023/02/07 06:10:57;;;;;;;39.17;19.00;;;-0.60;99.90;;;;;;4935539;28;91779;-76
2023/02/07 06:13:24;;;;;;;42.50;19.15;;;-0.60;99.90;;;;;;4936339;28;93177;-76
2023/02/07 06:15:51;;;;;;;45.70;19.63;;;-0.60;99.90;;;;;;4934936;28;95951;-77
2023/02/07 06:18:19;;;;;;;33.92;19.08;;;-0.60;99.90;;;;;;4918135;28;94816;-77
2023/02/07 06:20:49;;;;;;;40.42;19.40;;;-0.60;99.90;;;;;;4919371;28;92577;-77
2023/02/07 06:23:17;;;;;;;36.45;18.58;;;-0.60;99.90;;;;;;4935147;28;93379;-77
2023/02/07 06:25:44;;;;;;;38.28;18.63;;;-0.60;99.90;;;;;;4919013;28;96184;-77
2023/02/07 06:28:11;;;;;;;33.97;17.38;;;-0.60;99.90;;;;;;4935072;28;92552;-77
2023/02/07 06:30:38;;;;;;;38.78;19.83;;;-0.60;99.90;;;;;;4936207;28;93442;-75
2023/02/07 06:33:05;;;;;;;39.10;19.65;;;-0.60;99.90;;;;;;4918937;28;95734;-75
2023/02/07 06:35:32;;;;;;;42.72;18.33;;;-0.70;99.90;;;;;;4903347;28;95627;-77
2023/02/07 06:37:59;;;;;;;43.80;19.73;;;-0.70;99.90;;;;;;4936642;28;92382;-76
2023/02/07 06:40:26;;;;;;;38.65;19.63;;;-0.70;99.90;;;;;;4935099;28;92506;-75
2023/02/07 06:42:54;;;;;;;39.55;19.73;;;-0.70;99.90;;;;;;4934125;28;95610;-77
2023/02/07 06:45:21;;;;;;;35.92;19.00;;;-0.70;99.90;;;;;;4918609;28;98019;-76
2023/02/07 06:47:48;;;;;;;43.10;20.08;;;-0.70;99.90;;;;;;4935080;28;92507;-75
2023/02/07 06:50:15;;;;;;;36.17;18.00;;;-0.70;99.90;;;;;;4936322;28;92445;-75
2023/02/07 06:52:42;;;;;;;38.20;19.25;;;-0.60;99.90;;;;;;4918817;28;96009;-77
2023/02/07 06:55:09;;;;;;;41.05;20.10;;;-0.60;99.90;;;;;;4934942;28;93130;-76
2023/02/07 06:57:36;;;;;;;37.00;19.15;;;-0.60;99.90;;;;;;4936408;28;92979;-78
2023/02/07 07:00:04;;;;;;;48.33;21.67;;;-0.60;99.90;;;;;;4936756;28;91713;-75
2023/02/07 07:02:31;;;;;;;42.10;21.83;;;-0.60;99.90;;;;;;4918483;28;93350;-76
2023/02/07 07:04:58;;;;;;;42.05;21.40;;;-0.60;99.90;;;;;;4936018;28;95867;-76
2023/02/07 07:07:25;;;;;;;41.03;19.70;;;-0.60;99.90;;;;;;4936907;28;94853;-77
2023/02/07 07:09:52;;;;;;;46.33;20.38;;;-0.60;99.90;;;;;;4937911;28;94389;-77
2023/02/07 07:12:19;;;;;;;39.30;20.40;;;-0.50;99.90;;;;;;4922067;28;92417;-75
2023/02/07 07:14:46;;;;;;;39.92;20.05;;;-0.60;99.90;;;;;;4939229;28;93345;-77
2023/02/07 07:17:14;;;;;;;38.67;20.48;;;-0.50;99.90;;;;;;4939414;28;92510;-76
2023/02/07 07:19:41;;;;;;;39.50;21.73;;;-0.50;99.90;;;;;;4939069;28;92412;-76
2023/02/07 07:22:08;;;;;;;36.92;20.92;;;-0.50;99.90;;;;;;4938092;28;93187;-76
2023/02/07 07:24:35;;;;;;;41.75;22.67;;;-0.40;99.90;;;;;;4921911;28;95457;-76
2023/02/07 07:27:02;;;;;;;34.47;19.45;;;-0.40;99.90;;;;;;4921694;28;92530;-76
2023/02/07 07:29:28;;;;;;;36.75;19.27;;;-0.40;99.90;;;;;;4939160;28;92456;-76
2023/02/07 07:31:56;;;;;;;33.97;19.20;;;-0.40;99.90;;;;;;4936551;28;98163;-76
2023/02/07 07:34:23;;;;;;;42.53;19.80;;;-0.30;99.90;;;;;;4921646;28;98858;-76
2023/02/07 07:36:55;;;;;;;33.00;19.33;;;-0.20;99.90;;;;;;4937795;28;92541;-76
2023/02/07 07:39:23;;;;;;;38.72;19.65;;;-0.20;99.90;;;;;;4937890;28;92425;-76
2023/02/07 07:41:51;;;;;;;33.08;18.70;;;-0.10;99.90;;;;;;4937784;28;96196;-76
2023/02/07 07:44:34;;;;;;;;;;;0.00;99.90;;;;;;4937926;28;95449;-76
2023/02/07 07:47:03;;;;;;;29.65;16.23;;;0.10;99.90;;;;;;4940844;28;92565;-76
2023/02/07 07:49:30;;;;;;;28.75;16.33;;;0.10;99.90;;;;;;4939015;28;91694;-77
2023/02/07 07:51:57;;;;;;;28.38;16.98;;;0.20;99.90;;;;;;4921650;28;95802;-76
2023/02/07 07:54:24;;;;;;;28.15;16.48;;;0.40;99.90;;;;;;4938917;28;92975;-77
2023/02/07 07:56:51;;;;;;;28.25;17.45;;;0.40;99.90;;;;;;4920742;28;95096;-77
2023/02/07 07:59:18;;;;;;;31.00;17.02;;;0.50;99.90;;;;;;4938999;28;92424;-76
2023/02/07 08:01:50;;;;;;;36.83;20.35;;;0.60;99.90;;;;;;4921549;28;93161;-76
2023/02/07 08:04:17;;;;;;;27.40;16.65;;;0.70;99.90;;;;;;4936223;28;93421;-77
2023/02/07 08:06:44;;;;;;;24.58;17.00;;;0.70;99.90;;;;;;4937510;28;92477;-77
2023/02/07 08:09:11;;;;;;;26.45;16.45;;;0.80;99.90;;;;;;4937585;28;92505;-77
2023/02/07 08:11:38;;;;;;;25.10;17.52;;;0.90;99.90;;;;;;4937347;28;93293;-78
2023/02/07 08:14:05;;;;;;;26.15;18.27;;;1.00;99.90;;;;;;4937786;28;93069;-78
2023/02/07 08:16:32;;;;;;;20.90;12.60;;;1.20;99.90;;;;;;4935349;28;92528;-78
2023/02/07 08:18:59;;;;;;;22.30;15.07;;;1.30;99.90;;;;;;4937442;28;92463;-75
2023/02/07 08:21:26;;;;;;;20.52;15.13;;;1.50;99.90;;;;;;4918238;28;98673;-76
2023/02/07 08:23:53;;;;;;;25.55;14.75;;;1.70;99.90;;;;;;4936032;28;95506;-77
2023/02/07 08:26:21;;;;;;;21.23;13.48;;;1.90;99.90;;;;;;4936171;28;92421;-78
2023/02/07 08:28:48;;;;;;;22.88;14.77;;;2.00;99.90;;;;;;4936947;28;92461;-77
2023/02/07 08:31:15;;;;;;;22.10;14.00;;;2.00;99.90;;;;;;4937055;28;93466;-77
2023/02/07 08:33:43;;;;;;;24.52;15.13;;;2.10;99.90;;;;;;4935640;28;95415;-77
2023/02/07 08:36:11;;;;;;;21.52;13.65;;;2.10;99.90;;;;;;4919557;28;92600;-77
2023/02/07 08:38:38;;;;;;;23.75;14.23;;;2.10;99.90;;;;;;4936330;28;91755;-77
2023/02/07 08:41:05;;;;;;;20.83;13.55;;;2.10;99.90;;;;;;4935779;28;93319;-77
2023/02/07 08:43:32;;;;;;;20.10;13.07;;;2.10;99.90;;;;;;4935609;28;93019;-77
2023/02/07 08:45:59;;;;;;;19.52;12.68;;;2.10;99.90;;;;;;4935820;28;94749;-77
2023/02/07 08:48:27;;;;;;;17.90;11.82;;;2.10;99.90;;;;;;4936910;28;92482;-77
2023/02/07 08:50:54;;;;;;;17.45;12.20;;;2.10;99.90;;;;;;4935452;28;92575;-77
2023/02/07 08:53:22;;;;;;;19.67;13.18;;;2.00;99.90;;;;;;4935058;28;104957;-77
2023/02/07 08:55:50;;;;;;;18.23;12.48;;;2.00;99.90;;;;;;4936680;28;92405;-77
2023/02/07 08:58:17;;;;;;;17.50;12.07;;;2.10;99.90;;;;;;4935634;28;92526;-77
2023/02/07 09:00:45;;;;;;;19.33;12.50;;;2.00;99.90;;;;;;4884397;28;1492529;-77
2023/02/07 09:03:12;;;;;;;16.85;12.02;;;2.10;99.90;;;;;;4936682;28;95742;-77
2023/02/07 09:05:40;;;;;;;18.85;12.05;;;2.10;99.90;;;;;;4936240;28;92454;-77
2023/02/07 09:08:07;;;;;;;19.35;11.57;;;2.10;99.90;;;;;;4937786;28;93264;-77
2023/02/07 09:10:34;;;;;;;17.65;11.75;;;2.10;99.90;;;;;;4936186;28;95691;-77
2023/02/07 09:13:01;;;;;;;13.48;7.85;;;2.20;99.90;;;;;;4935868;28;97902;-77
2023/02/07 09:15:28;;;;;;;14.63;11.30;;;2.20;99.90;;;;;;4953091;28;92374;-77
2023/02/07 09:17:55;;;;;;;13.93;10.85;;;2.20;99.90;;;;;;4937274;28;92457;-77
2023/02/07 09:20:22;;;;;;;13.75;10.38;;;2.30;99.90;;;;;;4935993;28;99985;-77
2023/02/07 09:25:37;;;;;;;14.85;10.48;;;2.40;99.90;;;;;;4936122;28;92583;-77
2023/02/07 09:28:04;;;;;;;15.95;10.38;;;2.50;99.90;;;;;;4935420;28;91705;-77
2023/02/07 09:30:31;;;;;;;16.00;9.70;;;2.50;99.90;;;;;;4937119;28;93266;-76
2023/02/07 09:32:58;;;;;;;12.98;10.20;;;2.60;99.90;;;;;;4920027;28;95804;-77
2023/02/07 09:35:25;;;;;;;11.80;8.90;;;2.70;99.90;;;;;;4936218;28;94929;-77
2023/02/07 09:37:53;;;;;;;13.95;10.68;;;2.70;99.90;;;;;;4937153;28;92588;-76
2023/02/07 09:40:21;;;;;;;14.25;10.20;;;2.80;99.90;;;;;;4936936;28;93238;-77
2023/02/07 09:42:55;;;;;;;15.35;10.32;;;2.90;99.90;;;;;;4936894;28;93181;-77
2023/02/07 09:45:32;;;;;;;12.38;10.25;;;3.00;99.90;;;;;;4935729;28;92567;-76
2023/02/07 09:48:09;;;;;;;15.20;11.63;;;3.10;99.90;;;;;;4935399;28;93104;-75
2023/02/07 09:50:44;;;;;;;13.75;10.80;;;3.10;99.90;;;;;;4935448;28;95745;-79
2023/02/07 09:53:18;;;;;;;15.18;10.77;;;3.20;99.90;;;;;;4919742;28;94681;-79
2023/02/07 09:56:12;;;;;;;;;;;3.20;99.90;;;;;;4926992;28;93861;-79
2023/02/07 09:59:00;;;;;;;16.23;9.95;;;3.20;99.90;;;;;;4913376;28;94845;-79
2023/02/07 10:01:47;;;;;;;14.23;11.10;;;3.30;99.90;;;;;;4936324;28;95558;-79
2023/02/07 10:04:25;;;;;;;12.07;9.68;;;3.30;99.90;;;;;;4937159;28;94175;-80
2023/02/07 10:06:55;;;;;;;14.77;10.45;;;3.30;99.90;;;;;;4937914;28;94371;-80
2023/02/07 10:09:41;;;;;;;16.17;10.23;;;3.40;99.90;;;;;;4938472;28;93381;-80
2023/02/07 10:12:39;;;;;;;13.80;10.18;;;3.50;99.90;;;;;;4935338;28;95920;-79
2023/02/07 10:15:32;;;;;;;14.13;10.00;;;3.60;99.90;;;;;;4932509;28;93335;-80
2023/02/07 10:18:31;;;;;;;12.40;9.38;;;3.70;99.90;;;;;;4907639;28;93532;-80
2023/02/07 10:21:07;;;;;;;12.55;9.95;;;3.80;99.90;;;;;;4918275;28;91761;-80
2023/02/07 10:23:49;;;;;;;10.73;9.32;;;3.90;99.90;;;;;;4916304;28;96203;-79
2023/02/07 10:26:36;;;;;;;12.05;9.35;;;3.90;99.90;;;;;;4916402;28;92848;-80
2023/02/07 10:29:34;;;;;;;14.10;8.68;;;4.00;99.90;;;;;;4928357;28;94996;-78
2023/02/07 10:32:16;;;;;;;13.60;10.07;;;4.00;99.90;;;;;;4937274;28;93353;-78
2023/02/07 10:34:48;;;;;;;13.88;8.25;;;4.00;99.90;;;;;;4934628;28;95710;-80
2023/02/07 10:37:21;;;;;;;13.98;9.45;;;4.00;99.90;;;;;;4937701;28;93831;-80
2023/02/07 10:40:00;;;;;;;12.88;9.15;;;4.10;99.90;;;;;;4936831;28;93020;-80
2023/02/07 10:42:29;;;;;;;13.88;8.68;;;4.20;99.90;;;;;;4918623;28;92501;-79
2023/02/07 10:44:56;;;;;;;12.95;9.98;;;4.20;99.90;;;;;;4935854;28;93787;-80
2023/02/07 10:47:25;;;;;;;12.68;10.20;;;4.30;99.90;;;;;;4935428;28;95729;-80
2023/02/07 10:49:54;;;;;;;14.48;9.43;;;4.30;99.90;;;;;;4934652;28;92660;-79
2023/02/07 10:52:51;;;;;;;16.83;10.68;;;4.40;99.90;;;;;;4937129;28;93590;-79
2023/02/07 10:55:33;;;;;;;17.10;10.77;;;4.50;99.90;;;;;;4933698;28;95710;-79
2023/02/07 10:58:00;;;;;;;14.80;10.60;;;4.60;99.90;;;;;;4954052;28;95229;-80
2023/02/07 11:00:40;;;;;;;17.13;11.55;;;4.60;99.90;;;;;;4929568;28;92571;-79
2023/02/07 11:03:19;;;;;;;13.48;10.40;;;4.60;99.90;;;;;;4937797;28;93570;-79
2023/02/07 11:05:56;;;;;;;15.48;10.75;;;4.70;99.90;;;;;;4937305;28;93874;-78
2023/02/07 11:08:28;;;;;;;16.40;11.43;;;4.70;99.90;;;;;;4936210;28;93078;-78
2023/02/07 11:11:16;;;;;;;12.10;9.77;;;4.80;99.90;;;;;;4935653;28;92518;-78
2023/02/07 11:13:49;;;;;;;16.13;10.48;;;4.90;99.90;;;;;;4942960;28;92756;-79
2023/02/07 11:16:19;;;;;;;14.07;10.02;;;4.90;99.90;;;;;;4954020;28;96292;-77
2023/02/07 11:18:56;;;;;;;15.05;10.57;;;5.00;99.90;;;;;;4953888;28;93123;-77
2023/02/07 11:21:33;;;;;;;12.82;10.32;;;5.00;99.90;;;;;;4952889;28;95476;-77
2023/02/07 11:24:06;;;;;;;18.55;11.18;;;5.00;99.90;;;;;;4954383;28;93019;-77
2023/02/07 11:26:38;;;;;;;15.57;10.88;;;5.10;99.90;;;;;;4955436;28;93156;-77
2023/02/07 11:29:18;;;;;;;14.93;10.95;;;5.10;99.90;;;;;;4953952;28;92901;-77
2023/02/07 11:31:47;;;;;;;19.63;12.15;;;5.10;99.90;;;;;;4955946;28;92517;-77
2023/02/07 11:34:27;;;;;;;13.55;10.95;;;5.20;99.90;;;;;;4954092;28;92462;-77
2023/02/07 11:36:54;;;;;;;18.63;10.93;;;5.30;99.90;;;;;;4954802;28;93014;-77
2023/02/07 11:39:22;;;;;;;11.82;10.32;;;5.30;99.90;;;;;;4955315;28;96572;-77
2023/02/07 11:42:00;;;;;;;15.18;10.38;;;5.30;99.90;;;;;;4955004;28;92396;-77
2023/02/07 11:44:30;;;;;;;17.73;10.20;;;5.40;99.90;;;;;;4953919;28;93177;-78
2023/02/07 11:47:03;;;;;;;15.32;11.23;;;5.40;99.90;;;;;;4952343;28;96694;-77
2023/02/07 11:49:42;;;;;;;18.63;11.43;;;5.50;99.90;;;;;;4954992;28;95526;-78
2023/02/07 11:52:09;;;;;;;13.57;9.70;;;5.50;99.90;;;;;;4956916;28;92461;-77
2023/02/07 11:54:39;;;;;;;17.60;11.68;;;5.50;99.90;;;;;;4957536;28;92504;-78
2023/02/07 11:57:15;;;;;;;16.17;11.38;;;5.60;99.90;;;;;;4940376;28;94661;-77
2023/02/07 11:59:54;;;;;;;18.58;11.40;;;5.70;99.90;;;;;;4956459;28;95789;-77
2023/02/07 12:02:28;;;;;;;19.75;11.25;;;5.70;99.90;;;;;;4956684;28;92543;-77
2023/02/07 12:05:07;;;;;;;;;;;5.70;99.90;;;;;;4959131;28;91612;-77
2023/02/07 12:07:43;;;;;;;14.75;10.15;;;5.70;99.90;;;;;;4958686;28;93600;-78
2023/02/07 12:10:21;;;;;;;14.70;10.60;;;5.80;99.90;;;;;;4957465;28;93080;-78
2023/02/07 12:12:55;;;;;;;17.98;10.32;;;5.80;99.90;;;;;;4955536;28;94824;-78
2023/02/07 12:15:36;;;;;;;17.20;9.90;;;5.90;99.90;;;;;;4958317;28;92463;-78
2023/02/07 12:18:09;;;;;;;15.65;10.60;;;6.00;99.90;;;;;;4957209;28;93072;-78
2023/02/07 12:21:31;;;;;;;16.17;10.38;;;6.00;99.90;;;;;;4956549;28;95736;-78
2023/02/07 12:24:00;;;;;;;15.32;10.07;;;6.10;99.90;;;;;;4900798;28;92616;-78
2023/02/07 12:26:36;;;;;;;16.60;10.90;;;6.10;99.90;;;;;;4900649;28;92573;-78
2023/02/07 12:29:30;;;;;;;13.63;9.45;;;6.20;99.90;;;;;;4935983;28;94979;-78
2023/02/07 12:32:23;;;;;;;14.15;10.10;;;6.30;99.90;;;;;;4958648;28;93043;-78
2023/02/07 12:34:57;;;;;;;15.73;10.43;;;6.30;99.90;;;;;;4958079;28;92350;-78
2023/02/07 12:37:37;;;;;;;12.90;10.43;;;6.30;99.90;;;;;;4956422;28;92498;-78
2023/02/07 12:40:17;;;;;;;15.90;9.38;;;6.40;99.90;;;;;;4938875;28;98678;-78
2023/02/07 12:42:47;;;;;;;14.23;9.95;;;6.40;99.90;;;;;;4958623;28;96500;-78
2023/02/07 12:45:17;;;;;;;17.23;11.25;;;6.40;99.90;;;;;;4958330;28;92862;-78
2023/02/07 12:48:26;;;;;;;15.63;9.82;;;6.40;99.90;;;;;;4956238;28;92412;-78
2023/02/07 12:51:10;;;;;;;12.88;9.68;;;6.50;99.90;;;;;;4956751;28;94582;-78
2023/02/07 12:53:48;;;;;;;13.30;8.80;;;6.50;99.90;;;;;;4958341;28;93023;-78
2023/02/07 12:56:33;;;;;;;13.18;10.18;;;6.50;99.90;;;;;;4956444;28;92560;-78
2023/02/07 12:59:17;;;;;;;15.70;10.32;;;6.60;99.90;;;;;;4957582;28;91769;-78
2023/02/07 13:02:04;;;;;;;15.53;10.33;;;6.60;99.90;;;;;;4956450;28;93304;-78